Time;durP1;ratioP1;P1;durP2;ratioP2;P2;SDS_P1;SDS_P2;PMS_P1;PMS_P2;Temp;Humidity;BMP_temperature;BMP_pressure;BME280_temperature;BME280_humidity;BME280_pressure;Samples;Min_cycle;Max_cycle;Signal;HPM_P1;HPM_P2
2021/05/16 00:01:50;;;;;;;2.80;0.80;;;11.70;99.90;;;;;;5097126;28;20293;-72
2021/05/16 00:04:16;;;;;;;3.78;1.15;;;11.70;99.90;;;;;;5097063;28;20290;-72
2021/05/16 00:06:42;;;;;;;3.50;1.10;;;11.60;99.90;;;;;;5096704;28;20416;-71
2021/05/16 00:09:09;;;;;;;2.80;0.80;;;11.60;99.90;;;;;;5096958;28;20202;-72
2021/05/16 00:11:36;;;;;;;2.20;0.98;;;11.60;99.90;;;;;;5096976;28;20212;-72
2021/05/16 00:14:02;;;;;;;1.90;1.02;;;11.70;99.90;;;;;;5097012;28;20285;-72
2021/05/16 00:16:29;;;;;;;3.55;1.00;;;11.60;99.90;;;;;;5096743;28;20588;-72
2021/05/16 00:18:55;;;;;;;2.45;0.77;;;11.60;99.90;;;;;;5096709;28;20244;-72
2021/05/16 00:21:21;;;;;;;2.30;0.80;;;11.60;99.90;;;;;;5096687;28;20202;-72
2021/05/16 00:23:48;;;;;;;2.10;0.80;;;11.60;99.90;;;;;;5096795;28;20253;-72
2021/05/16 00:26:14;;;;;;;1.80;0.75;;;11.70;99.90;;;;;;5096496;28;20731;-72
2021/05/16 00:28:41;;;;;;;2.60;1.13;;;11.70;99.90;;;;;;5096827;28;20289;-72
2021/05/16 00:31:08;;;;;;;2.05;1.00;;;11.70;99.90;;;;;;5096666;28;20327;-72
2021/05/16 00:33:34;;;;;;;3.10;0.85;;;11.60;99.90;;;;;;5096379;28;20237;-72
2021/05/16 00:36:00;;;;;;;2.00;0.80;;;11.70;99.90;;;;;;5096141;28;20253;-71
2021/05/16 00:38:27;;;;;;;3.63;1.00;;;11.70;99.90;;;;;;5096279;28;20285;-72
2021/05/16 00:40:53;;;;;;;3.22;0.80;;;11.70;99.90;;;;;;5096341;28;20202;-72
2021/05/16 00:43:21;;;;;;;2.25;0.88;;;11.70;99.90;;;;;;5096116;28;20579;-72
2021/05/16 00:45:48;;;;;;;2.47;0.80;;;11.80;99.90;;;;;;5096162;28;20222;-72
2021/05/16 00:48:15;;;;;;;2.75;1.00;;;11.80;99.90;;;;;;5096263;28;20199;-73
2021/05/16 00:50:43;;;;;;;3.42;1.27;;;11.90;99.90;;;;;;5095122;28;20288;-72
2021/05/16 00:53:10;;;;;;;3.65;1.10;;;11.90;99.90;;;;;;5095827;28;20301;-72
2021/05/16 00:55:37;;;;;;;2.97;1.05;;;11.90;99.90;;;;;;5095626;28;20346;-72
2021/05/16 00:58:04;;;;;;;2.78;1.25;;;11.90;99.90;;;;;;5095496;28;20301;-72
2021/05/16 01:00:34;;;;;;;2.10;0.90;;;11.90;99.90;;;;;;5095624;28;20620;-72
2021/05/16 01:03:01;;;;;;;2.80;0.90;;;11.90;99.90;;;;;;5095121;28;20204;-72
2021/05/16 01:05:27;;;;;;;2.92;1.08;;;11.90;99.90;;;;;;5095246;28;20762;-72
2021/05/16 01:07:54;;;;;;;1.88;0.77;;;11.90;99.90;;;;;;5095397;28;20626;-72
2021/05/16 01:10:20;;;;;;;2.55;1.00;;;12.00;99.90;;;;;;5095408;28;20201;-72
2021/05/16 01:12:50;;;;;;;2.08;1.00;;;12.00;99.90;;;;;;5095056;28;20660;-72
2021/05/16 01:15:20;;;;;;;2.08;0.80;;;12.00;99.90;;;;;;5095147;28;20575;-72
2021/05/16 01:17:47;;;;;;;2.58;1.00;;;12.00;99.90;;;;;;5095337;28;20549;-72
2021/05/16 01:20:16;;;;;;;4.05;0.90;;;12.00;99.90;;;;;;5095211;28;20237;-73
2021/05/16 01:22:43;;;;;;;3.50;1.00;;;11.90;99.90;;;;;;5095033;28;20255;-73
2021/05/16 01:25:10;;;;;;;2.10;0.75;;;11.90;99.90;;;;;;5094823;28;20230;-72
2021/05/16 01:27:37;;;;;;;2.92;1.10;;;12.00;99.90;;;;;;5094510;28;20221;-72
2021/05/16 01:30:05;;;;;;;3.00;1.38;;;11.90;99.90;;;;;;5094968;28;20266;-72
2021/05/16 01:32:31;;;;;;;4.20;1.10;;;11.90;99.90;;;;;;5094822;28;20241;-73
2021/05/16 01:34:58;;;;;;;3.28;1.10;;;11.90;99.90;;;;;;5094537;28;20707;-73
2021/05/16 01:37:25;;;;;;;3.15;1.10;;;11.90;99.90;;;;;;5094598;28;20751;-72
2021/05/16 01:39:52;;;;;;;2.85;0.95;;;12.00;99.90;;;;;;5094702;28;20202;-72
2021/05/16 01:42:19;;;;;;;2.50;1.13;;;12.00;99.90;;;;;;5094627;28;20260;-72
2021/05/16 01:44:45;;;;;;;1.95;0.90;;;12.00;99.90;;;;;;5094729;28;20228;-72
2021/05/16 01:47:12;;;;;;;2.22;0.90;;;11.90;99.90;;;;;;5094086;28;20222;-72
2021/05/16 01:49:42;;;;;;;2.33;1.30;;;12.00;99.90;;;;;;5094241;28;20694;-73
2021/05/16 01:52:10;;;;;;;2.55;1.20;;;12.00;99.90;;;;;;5094546;28;20667;-73
2021/05/16 01:54:36;;;;;;;4.93;1.30;;;11.90;99.90;;;;;;5094982;28;20293;-72
2021/05/16 01:57:06;;;;;;;6.97;1.20;;;11.90;99.90;;;;;;5094733;28;20249;-72
2021/05/16 01:59:33;;;;;;;1.70;1.00;;;11.90;99.90;;;;;;5094762;28;20331;-72
2021/05/16 02:02:00;;;;;;;2.63;1.35;;;11.80;99.90;;;;;;5094808;28;20202;-72
2021/05/16 02:04:29;;;;;;;2.35;0.93;;;11.80;99.90;;;;;;5095162;28;20228;-72
2021/05/16 02:06:56;;;;;;;3.05;1.20;;;11.80;99.90;;;;;;5094681;28;20232;-72
2021/05/16 02:09:23;;;;;;;3.58;1.05;;;11.70;99.90;;;;;;5094661;28;20631;-72
2021/05/16 02:11:50;;;;;;;3.40;1.25;;;11.70;99.90;;;;;;5094953;28;20297;-72
2021/05/16 02:14:24;;;;;;;3.15;1.17;;;11.60;99.90;;;;;;5094487;28;20194;-72
2021/05/16 02:16:51;;;;;;;2.72;1.10;;;11.60;99.90;;;;;;5094332;28;20247;-72
2021/05/16 02:19:17;;;;;;;2.30;1.40;;;11.60;99.90;;;;;;5094586;28;20210;-72
2021/05/16 02:21:44;;;;;;;3.67;1.20;;;11.60;99.90;;;;;;5094615;28;20216;-73
2021/05/16 02:24:10;;;;;;;2.97;1.30;;;11.60;99.90;;;;;;5094279;28;20667;-72
2021/05/16 02:26:37;;;;;;;2.80;1.15;;;11.60;99.90;;;;;;5094344;28;20611;-72
2021/05/16 02:29:04;;;;;;;2.13;1.27;;;11.60;99.90;;;;;;5094608;28;20293;-72
2021/05/16 02:31:32;;;;;;;2.55;1.20;;;11.60;99.90;;;;;;5094444;28;20293;-72
2021/05/16 02:33:58;;;;;;;2.28;1.30;;;11.70;99.90;;;;;;5094215;28;20300;-72
2021/05/16 02:36:25;;;;;;;2.10;1.20;;;11.70;99.90;;;;;;5093986;28;20225;-72
2021/05/16 02:38:51;;;;;;;3.45;1.30;;;11.70;99.90;;;;;;5094416;28;20739;-73
2021/05/16 02:41:18;;;;;;;2.35;1.30;;;11.70;99.90;;;;;;5094048;28;20204;-72
2021/05/16 02:43:44;;;;;;;2.35;1.20;;;11.70;99.90;;;;;;5093979;28;20757;-72
2021/05/16 02:46:10;;;;;;;2.40;1.25;;;11.70;99.90;;;;;;5093617;28;20774;-72
2021/05/16 02:48:38;;;;;;;2.95;1.67;;;11.60;99.90;;;;;;5093821;28;20202;-72
2021/05/16 02:51:05;;;;;;;2.80;1.55;;;11.70;99.90;;;;;;5094402;28;20289;-72
2021/05/16 02:53:31;;;;;;;2.20;1.27;;;11.70;99.90;;;;;;5093795;28;20206;-72
2021/05/16 02:55:58;;;;;;;7.95;3.20;;;11.60;99.90;;;;;;5093855;28;20696;-72
2021/05/16 02:58:25;;;;;;;4.82;1.73;;;11.60;99.90;;;;;;5094193;28;20284;-72
2021/05/16 03:00:52;;;;;;;2.92;1.40;;;11.60;99.90;;;;;;5094234;28;20236;-72
2021/05/16 03:03:18;;;;;;;2.20;1.23;;;11.60;99.90;;;;;;5094180;28;20633;-72
2021/05/16 03:05:45;;;;;;;5.05;2.17;;;11.60;99.90;;;;;;5093614;28;20312;-72
2021/05/16 03:08:12;;;;;;;2.30;1.15;;;11.60;99.90;;;;;;5093895;28;20293;-72
2021/05/16 03:10:38;;;;;;;3.40;1.17;;;11.70;99.90;;;;;;5093800;28;20205;-73
2021/05/16 03:13:05;;;;;;;2.33;1.30;;;11.70;99.90;;;;;;5093744;28;20206;-73
2021/05/16 03:15:32;;;;;;;2.10;0.90;;;11.70;99.90;;;;;;5097102;28;20198;-72
2021/05/16 03:17:58;;;;;;;2.28;1.45;;;11.80;99.90;;;;;;5097705;28;20745;-73
2021/05/16 03:20:25;;;;;;;3.80;1.70;;;11.90;99.90;;;;;;5097415;28;20305;-72
2021/05/16 03:22:52;;;;;;;2.60;1.40;;;11.90;99.90;;;;;;5097496;28;20297;-72
2021/05/16 03:25:18;;;;;;;2.30;1.40;;;12.00;99.90;;;;;;5097159;28;20226;-72
2021/05/16 03:27:45;;;;;;;3.25;1.17;;;12.00;99.90;;;;;;5097316;28;20292;-72
2021/05/16 03:30:12;;;;;;;2.75;1.48;;;11.90;99.90;;;;;;5097437;28;20652;-73
2021/05/16 03:32:41;;;;;;;2.60;1.33;;;12.00;99.90;;;;;;5097305;28;20206;-73
2021/05/16 03:35:08;;;;;;;4.20;1.40;;;12.00;99.90;;;;;;5097322;28;20228;-73
2021/05/16 03:37:35;;;;;;;4.63;1.60;;;12.00;99.90;;;;;;5096945;28;20309;-72
2021/05/16 03:40:03;;;;;;;3.92;1.63;;;12.00;99.90;;;;;;5096963;28;20206;-72
2021/05/16 03:42:30;;;;;;;2.50;1.20;;;12.00;99.90;;;;;;5096836;28;20292;-72
2021/05/16 03:44:56;;;;;;;4.82;2.50;;;12.00;99.90;;;;;;5096707;28;20226;-72
2021/05/16 03:47:22;;;;;;;5.88;1.95;;;12.00;99.90;;;;;;5096696;28;20228;-72
2021/05/16 03:49:49;;;;;;;2.80;1.30;;;12.00;99.90;;;;;;5096750;28;20675;-72
2021/05/16 03:52:19;;;;;;;3.38;1.45;;;12.00;99.90;;;;;;5096594;28;20202;-73
2021/05/16 03:54:45;;;;;;;2.30;1.10;;;11.90;99.90;;;;;;5096859;28;20206;-72
2021/05/16 03:57:13;;;;;;;4.85;1.40;;;11.90;99.90;;;;;;5096478;28;20222;-72
2021/05/16 03:59:40;;;;;;;2.40;1.30;;;11.90;99.90;;;;;;5096454;28;20202;-72
2021/05/16 04:02:06;;;;;;;3.40;1.58;;;11.90;99.90;;;;;;5096758;28;20205;-72
2021/05/16 04:04:32;;;;;;;2.80;1.30;;;11.90;99.90;;;;;;5096375;28;20336;-72
2021/05/16 04:06:59;;;;;;;2.85;1.25;;;11.90;99.90;;;;;;5096189;28;20229;-72
2021/05/16 04:09:25;;;;;;;3.08;1.30;;;11.90;99.90;;;;;;5096390;28;20297;-72
2021/05/16 04:11:52;;;;;;;4.63;2.13;;;11.90;99.90;;;;;;5096200;28;20288;-72
2021/05/16 04:14:21;;;;;;;2.40;1.10;;;11.90;99.90;;;;;;5096405;28;20309;-72
2021/05/16 04:16:48;;;;;;;4.15;1.50;;;11.90;99.90;;;;;;5095799;28;20772;-72
2021/05/16 04:19:14;;;;;;;4.00;1.30;;;11.80;99.90;;;;;;5096197;28;20292;-72
2021/05/16 04:21:40;;;;;;;3.55;1.73;;;11.80;99.90;;;;;;5096193;28;20236;-72
2021/05/16 04:24:08;;;;;;;2.90;1.48;;;11.70;99.90;;;;;;5096023;28;20434;-72
2021/05/16 04:26:34;;;;;;;5.18;1.13;;;11.70;99.90;;;;;;5095896;28;20313;-72
2021/05/16 04:29:00;;;;;;;2.40;1.20;;;11.70;99.90;;;;;;5096048;28;20563;-73
2021/05/16 04:31:28;;;;;;;3.08;1.25;;;11.70;99.90;;;;;;5095906;28;20218;-73
2021/05/16 04:33:54;;;;;;;4.10;1.33;;;11.70;99.90;;;;;;5095949;28;20293;-73
2021/05/16 04:36:20;;;;;;;4.10;1.50;;;11.70;99.90;;;;;;5095410;28;20316;-72
2021/05/16 04:38:48;;;;;;;4.03;1.20;;;11.60;99.90;;;;;;5096569;28;20289;-72
2021/05/16 04:41:14;;;;;;;2.42;1.30;;;11.50;99.90;;;;;;5095876;28;20202;-73
2021/05/16 04:43:41;;;;;;;2.40;1.00;;;11.40;99.90;;;;;;5095691;28;20343;-72
2021/05/16 04:46:08;;;;;;;2.53;1.00;;;11.40;99.90;;;;;;5095631;28;20233;-72
2021/05/16 04:48:35;;;;;;;4.25;1.20;;;11.40;99.90;;;;;;5095736;28;20202;-72
2021/05/16 04:51:01;;;;;;;2.47;1.05;;;11.40;99.90;;;;;;5096564;28;20285;-73
2021/05/16 04:53:29;;;;;;;3.20;1.10;;;11.40;99.90;;;;;;5095701;28;20865;-73
2021/05/16 04:55:56;;;;;;;2.55;1.13;;;11.40;99.90;;;;;;5095297;28;20229;-72
2021/05/16 04:58:23;;;;;;;2.45;1.10;;;11.40;99.90;;;;;;5095632;28;20347;-72
2021/05/16 05:00:49;;;;;;;3.78;1.50;;;11.50;99.90;;;;;;5095327;28;20610;-73
2021/05/16 05:03:16;;;;;;;5.45;1.40;;;11.40;99.90;;;;;;5095424;28;20300;-73
2021/05/16 05:05:43;;;;;;;2.58;0.98;;;11.40;99.90;;;;;;5095035;28;20222;-72
2021/05/16 05:08:11;;;;;;;2.45;1.05;;;11.50;99.90;;;;;;5095277;28;20721;-73
2021/05/16 05:10:37;;;;;;;3.33;1.17;;;11.50;99.90;;;;;;5095348;28;20201;-73
2021/05/16 05:13:03;;;;;;;2.72;1.05;;;11.60;99.90;;;;;;5095320;28;20206;-73
2021/05/16 05:15:30;;;;;;;2.20;1.10;;;11.60;99.90;;;;;;5094964;28;20198;-72
2021/05/16 05:17:56;;;;;;;2.05;0.90;;;11.70;99.90;;;;;;5094913;28;20626;-73
2021/05/16 05:20:24;;;;;;;3.13;1.00;;;11.80;99.90;;;;;;5094981;28;20252;-72
2021/05/16 05:22:52;;;;;;;1.25;0.93;;;11.90;99.90;;;;;;5095095;28;20228;-73
2021/05/16 05:25:19;;;;;;;1.85;1.30;;;11.90;99.90;;;;;;5094660;28;20222;-71
2021/05/16 05:27:45;;;;;;;1.25;1.15;;;12.00;99.90;;;;;;5095220;28;20292;-73
2021/05/16 05:30:13;;;;;;;2.85;1.27;;;12.00;99.90;;;;;;5094840;28;20201;-73
2021/05/16 05:32:39;;;;;;;1.75;0.90;;;12.00;99.90;;;;;;5095255;28;20202;-73
2021/05/16 05:35:06;;;;;;;2.58;1.00;;;12.00;99.90;;;;;;5094865;28;20198;-72
2021/05/16 05:37:33;;;;;;;1.42;1.05;;;12.10;99.90;;;;;;5093998;28;20317;-72
2021/05/16 05:40:00;;;;;;;1.77;1.02;;;12.10;99.90;;;;;;5094624;28;20240;-73
2021/05/16 05:42:26;;;;;;;3.05;1.15;;;12.00;99.90;;;;;;5094706;28;20668;-73
2021/05/16 05:44:53;;;;;;;25.25;5.47;;;12.00;99.90;;;;;;5094765;28;20255;-72
2021/05/16 05:47:20;;;;;;;2.70;1.30;;;12.00;99.90;;;;;;5094347;28;20275;-72
2021/05/16 05:49:46;;;;;;;2.92;1.70;;;12.00;99.90;;;;;;5094317;28;20728;-72
2021/05/16 05:52:12;;;;;;;2.15;1.10;;;12.00;99.90;;;;;;5094367;28;20202;-74
2021/05/16 05:54:39;;;;;;;3.47;1.42;;;12.00;99.90;;;;;;5094270;28;20236;-73
2021/05/16 05:57:06;;;;;;;2.10;1.40;;;12.00;99.90;;;;;;5093913;28;20236;-73
2021/05/16 05:59:33;;;;;;;4.45;2.20;;;12.10;99.90;;;;;;5094362;28;20293;-73
2021/05/16 06:01:59;;;;;;;2.20;1.63;;;12.10;99.90;;;;;;5094349;28;20567;-73
2021/05/16 06:04:27;;;;;;;2.10;1.40;;;12.10;99.90;;;;;;5094683;28;20331;-73
2021/05/16 06:06:54;;;;;;;1.80;1.20;;;12.10;99.90;;;;;;5094254;28;20222;-72
2021/05/16 06:09:20;;;;;;;1.70;1.00;;;12.10;99.90;;;;;;5094174;28;20617;-72
2021/05/16 06:11:46;;;;;;;1.48;1.10;;;12.20;99.90;;;;;;5093874;28;20288;-73
2021/05/16 06:14:14;;;;;;;1.58;1.08;;;12.10;99.90;;;;;;5094038;28;20285;-73
2021/05/16 06:16:40;;;;;;;2.60;1.10;;;12.10;99.90;;;;;;5093822;28;20225;-72
2021/05/16 06:19:06;;;;;;;2.70;1.77;;;12.00;99.90;;;;;;5094037;28;20202;-73
2021/05/16 06:21:33;;;;;;;3.40;2.10;;;12.00;99.90;;;;;;5094146;28;20294;-73
2021/05/16 06:24:06;;;;;;;2.20;1.42;;;12.10;99.90;;;;;;5093857;28;20202;-73
2021/05/16 06:26:36;;;;;;;1.30;0.80;;;12.10;99.90;;;;;;5093528;28;20225;-72
2021/05/16 06:29:03;;;;;;;2.47;0.73;;;12.00;99.90;;;;;;5094079;28;20292;-73
2021/05/16 06:31:30;;;;;;;1.98;0.90;;;12.00;99.90;;;;;;5093794;28;20244;-73
2021/05/16 06:33:56;;;;;;;1.75;0.93;;;11.80;99.90;;;;;;5093808;28;20293;-73
2021/05/16 06:36:23;;;;;;;1.25;0.80;;;11.80;99.90;;;;;;5093447;28;20218;-72
2021/05/16 06:38:49;;;;;;;1.27;0.85;;;11.80;99.90;;;;;;5093993;28;20212;-73
2021/05/16 06:41:16;;;;;;;1.55;0.80;;;11.80;99.90;;;;;;5093573;28;20234;-73
2021/05/16 06:43:42;;;;;;;3.60;1.00;;;11.80;99.90;;;;;;5093760;28;20618;-73
2021/05/16 06:46:09;;;;;;;1.38;0.95;;;12.00;99.90;;;;;;5093356;28;20626;-73
2021/05/16 06:48:36;;;;;;;1.38;1.23;;;12.00;99.90;;;;;;5094602;28;20681;-73
2021/05/16 06:51:03;;;;;;;1.60;1.05;;;12.20;99.90;;;;;;5097974;28;20213;-73
2021/05/16 06:53:30;;;;;;;1.60;0.85;;;12.20;99.90;;;;;;5097509;28;20224;-73
2021/05/16 06:55:56;;;;;;;161.98;27.60;;;12.30;99.90;;;;;;5097639;28;20254;-73
2021/05/16 06:58:22;;;;;;;1.52;0.85;;;12.40;99.90;;;;;;5097726;28;20205;-73
2021/05/16 07:00:49;;;;;;;1.20;0.80;;;12.50;99.90;;;;;;5097761;28;20288;-73
2021/05/16 07:03:16;;;;;;;1.63;0.90;;;12.70;99.90;;;;;;5097722;28;20621;-73
2021/05/16 07:05:43;;;;;;;1.45;0.80;;;13.00;99.90;;;;;;5097473;28;20226;-72
2021/05/16 07:08:10;;;;;;;4.88;1.00;;;13.20;99.90;;;;;;5097602;28;20275;-73
2021/05/16 07:10:37;;;;;;;7.57;1.08;;;13.40;99.90;;;;;;5097604;28;20298;-72
2021/05/16 07:13:03;;;;;;;4.32;0.90;;;13.50;99.90;;;;;;5097636;28;20288;-72
2021/05/16 07:15:30;;;;;;;5.60;1.00;;;13.70;99.90;;;;;;5097175;28;20197;-72
2021/05/16 07:17:56;;;;;;;8.60;0.95;;;13.90;99.90;;;;;;5097757;28;20202;-72
2021/05/16 07:20:23;;;;;;;63.22;9.52;;;14.00;99.90;;;;;;5097663;28;20202;-72
2021/05/16 07:22:50;;;;;;;3.50;0.98;;;14.00;99.90;;;;;;5097219;28;20247;-72
2021/05/16 07:25:17;;;;;;;2.17;0.70;;;14.00;99.90;;;;;;5097179;28;20252;-73
2021/05/16 07:27:44;;;;;;;2.28;0.80;;;14.20;99.90;;;;;;5098141;28;20206;-72
2021/05/16 07:30:11;;;;;;;1.63;0.80;;;14.20;99.90;;;;;;5097416;28;20239;-72
2021/05/16 07:32:38;;;;;;;2.00;1.05;;;14.20;99.90;;;;;;5097453;28;20241;-72
2021/05/16 07:35:05;;;;;;;2.72;1.05;;;14.20;99.90;;;;;;5097469;28;20793;-73
2021/05/16 07:37:32;;;;;;;2.95;0.70;;;14.10;99.90;;;;;;5096841;28;20782;-72
2021/05/16 07:39:59;;;;;;;1.80;0.80;;;14.10;99.90;;;;;;5097117;28;20292;-73
2021/05/16 07:42:26;;;;;;;6.65;3.47;;;14.10;99.90;;;;;;5097295;28;20212;-73
2021/05/16 07:44:53;;;;;;;1.88;0.95;;;14.10;99.90;;;;;;5097045;28;20222;-72
2021/05/16 07:47:19;;;;;;;1.63;0.75;;;14.20;99.90;;;;;;5096897;28;20222;-72
2021/05/16 07:49:45;;;;;;;2.47;0.90;;;14.30;99.90;;;;;;5096891;28;20632;-72
2021/05/16 07:52:12;;;;;;;3.45;0.90;;;14.50;99.90;;;;;;5096619;28;20658;-73
2021/05/16 07:54:38;;;;;;;1.52;0.63;;;14.60;99.90;;;;;;5096965;28;20247;-73
2021/05/16 07:57:08;;;;;;;2.13;0.70;;;14.60;99.90;;;;;;5096742;28;20232;-72
2021/05/16 07:59:34;;;;;;;1.50;0.60;;;14.90;99.90;;;;;;5096786;28;20606;-73
2021/05/16 08:02:00;;;;;;;2.85;0.90;;;15.30;99.90;;;;;;5096678;28;20300;-73
2021/05/16 08:04:27;;;;;;;2.85;0.75;;;15.50;99.90;;;;;;5096774;28;20315;-73
2021/05/16 08:06:55;;;;;;;1.48;0.80;;;15.50;99.90;;;;;;5096629;28;20323;-72
2021/05/16 08:09:21;;;;;;;1.95;0.90;;;15.50;99.90;;;;;;5096738;28;20670;-73
2021/05/16 08:11:47;;;;;;;3.58;1.02;;;15.30;99.90;;;;;;5096617;28;20299;-73
2021/05/16 08:14:15;;;;;;;1.42;0.80;;;15.10;99.90;;;;;;5096458;28;20294;-73
2021/05/16 08:16:41;;;;;;;1.60;0.70;;;14.90;99.90;;;;;;5095876;28;20309;-72
2021/05/16 08:19:08;;;;;;;3.40;1.05;;;14.80;99.90;;;;;;5096046;28;20218;-73
2021/05/16 08:21:34;;;;;;;2.67;0.80;;;14.60;99.90;;;;;;5096278;28;20285;-73
2021/05/16 08:24:01;;;;;;;1.33;0.60;;;14.40;99.90;;;;;;5096150;28;20199;-72
2021/05/16 08:26:27;;;;;;;1.55;0.85;;;14.30;99.90;;;;;;5095840;28;20253;-72
2021/05/16 08:28:54;;;;;;;2.00;0.80;;;14.00;99.90;;;;;;5096116;28;20273;-72
2021/05/16 08:31:21;;;;;;;1.85;0.80;;;14.00;99.90;;;;;;5095979;28;20293;-72
2021/05/16 08:33:47;;;;;;;2.85;0.82;;;14.20;99.90;;;;;;5095950;28;20210;-72
2021/05/16 08:36:14;;;;;;;2.17;0.88;;;14.40;99.90;;;;;;5095432;28;20304;-72
2021/05/16 08:38:40;;;;;;;11.40;5.35;;;14.80;99.90;;;;;;5096046;28;20248;-72
2021/05/16 08:41:06;;;;;;;7.00;3.85;;;17.00;99.90;;;;;;5096259;28;20220;-73
2021/05/16 08:43:32;;;;;;;4.23;1.67;;;19.80;99.90;;;;;;5095975;28;20291;-74
2021/05/16 08:45:59;;;;;;;1.77;0.70;;;22.30;93.80;;;;;;5095258;28;20568;-73
2021/05/16 08:48:29;;;;;;;1.70;0.97;;;24.60;86.50;;;;;;5095852;28;20490;-74
2021/05/16 08:50:56;;;;;;;1.23;0.83;;;26.00;72.70;;;;;;5095916;28;20536;-74
2021/05/16 08:53:22;;;;;;;1.70;0.70;;;27.70;66.50;;;;;;5096028;28;20816;-75
2021/05/16 08:55:49;;;;;;;24.77;5.73;;;28.70;57.90;;;;;;5095439;28;20470;-73
2021/05/16 08:58:15;;;;;;;1.20;0.70;;;29.00;54.00;;;;;;5096035;28;20437;-74
2021/05/16 09:00:44;;;;;;;4.87;2.87;;;28.80;52.40;;;;;;5095790;28;20846;-72
2021/05/16 09:03:11;;;;;;;1.80;1.10;;;30.00;49.50;;;;;;5095646;28;20802;-73
2021/05/16 09:05:40;;;;;;;1.70;0.80;;;30.20;47.70;;;;;;5095229;28;20574;-73
2021/05/16 09:08:11;;;;;;;1.23;0.83;;;29.40;49.10;;;;;;5095682;28;20442;-73
2021/05/16 09:10:38;;;;;;;1.00;0.90;;;28.90;48.60;;;;;;5095118;28;20444;-73
2021/05/16 09:13:23;;;;;;;1.33;0.80;;;29.50;48.30;;;;;;5095109;28;20526;-74
2021/05/16 09:16:02;;;;;;;1.20;1.00;;;29.50;46.70;;;;;;5095030;28;20547;-73
2021/05/16 09:18:36;;;;;;;2.90;1.10;;;30.50;45.10;;;;;;5095671;28;20465;-73
2021/05/16 09:21:31;;;;;;;2.00;1.10;;;30.30;43.30;;;;;;5095409;28;20541;-74
2021/05/16 09:24:13;;;;;;;3.10;0.90;;;28.40;45.00;;;;;;5059641;28;20452;-74
2021/05/16 09:26:52;;;;;;;1.27;1.00;;;26.70;47.50;;;;;;5095146;28;20496;-73
2021/05/16 09:29:27;;;;;;;1.30;0.93;;;25.10;50.60;;;;;;5095485;28;20442;-73
2021/05/16 09:31:54;;;;;;;1.10;1.00;;;24.30;52.20;;;;;;5095408;28;20444;-73
2021/05/16 09:34:21;;;;;;;3.17;2.20;;;24.20;51.20;;;;;;5095527;28;20441;-73
2021/05/16 09:36:49;;;;;;;3.47;1.60;;;24.20;53.10;;;;;;5094984;28;20463;-73
2021/05/16 09:39:18;;;;;;;2.23;1.20;;;24.90;52.50;;;;;;5095610;28;20436;-73
2021/05/16 09:41:58;;;;;;;1.90;1.20;;;25.80;50.60;;;;;;5095277;28;20424;-73
2021/05/16 09:44:35;;;;;;;2.07;1.20;;;26.00;47.90;;;;;;5095022;28;20440;-73
2021/05/16 09:47:12;;;;;;;1.10;0.80;;;25.00;49.50;;;;;;5094621;28;20473;-72
2021/05/16 09:49:39;;;;;;;1.40;0.80;;;23.90;49.30;;;;;;5095031;28;20524;-73
2021/05/16 09:52:11;;;;;;;4.43;0.83;;;24.00;51.30;;;;;;5095210;28;20442;-73
2021/05/16 09:54:58;;;;;;;1.97;1.07;;;24.70;49.60;;;;;;5094792;28;20515;-73
2021/05/16 09:57:25;;;;;;;1.57;1.10;;;25.80;48.10;;;;;;5094961;28;20920;-72
2021/05/16 09:59:53;;;;;;;2.30;0.83;;;26.40;44.90;;;;;;5095118;28;20535;-73
2021/05/16 10:02:23;;;;;;;1.57;1.00;;;27.30;43.50;;;;;;5094792;28;20449;-73
2021/05/16 10:04:50;;;;;;;1.70;0.80;;;28.30;43.30;;;;;;5095315;28;20511;-73
2021/05/16 10:07:19;;;;;;;1.80;0.80;;;28.00;41.70;;;;;;5094647;28;20550;-72
2021/05/16 10:09:46;;;;;;;2.40;1.07;;;26.20;43.20;;;;;;5095051;28;20454;-73
2021/05/16 10:12:12;;;;;;;1.90;0.97;;;25.90;45.50;;;;;;5094381;28;20440;-73
2021/05/16 10:14:44;;;;;;;1.80;1.10;;;26.50;44.20;;;;;;5094343;28;20856;-72
2021/05/16 10:17:12;;;;;;;1.40;1.00;;;27.30;42.70;;;;;;5094067;28;20464;-72
2021/05/16 10:19:41;;;;;;;1.00;0.70;;;27.90;41.00;;;;;;5094121;28;20803;-73
2021/05/16 10:22:16;;;;;;;2.07;0.93;;;28.90;40.30;;;;;;5094211;28;20483;-73
2021/05/16 10:24:44;;;;;;;1.87;0.80;;;28.80;39.20;;;;;;5094019;28;20513;-72
2021/05/16 10:27:23;;;;;;;2.47;1.00;;;27.30;39.70;;;;;;5094404;28;20795;-73
2021/05/16 10:29:51;;;;;;;1.60;0.87;;;26.30;42.30;;;;;;5094589;28;20533;-73
2021/05/16 10:32:23;;;;;;;1.77;0.80;;;25.30;43.30;;;;;;5094362;28;20535;-73
2021/05/16 10:34:56;;;;;;;2.40;0.97;;;24.90;45.70;;;;;;5095104;28;20431;-73
2021/05/16 10:37:42;;;;;;;1.37;0.90;;;24.10;44.70;;;;;;5094740;28;20552;-72
2021/05/16 10:40:30;;;;;;;1.57;0.90;;;23.70;46.80;;;;;;5095099;28;20850;-72
2021/05/16 10:42:58;;;;;;;1.23;0.77;;;23.20;47.40;;;;;;5094487;28;20917;-73
2021/05/16 10:45:40;;;;;;;1.30;0.90;;;22.30;48.30;;;;;;5094911;28;20568;-72
2021/05/16 10:48:11;;;;;;;1.77;1.07;;;21.70;50.00;;;;;;5094572;28;20440;-72
2021/05/16 10:50:40;;;;;;;1.47;0.70;;;21.70;49.90;;;;;;5094853;28;20440;-73
2021/05/16 10:53:09;;;;;;;0.70;0.60;;;21.30;50.00;;;;;;5094326;28;20611;-73
2021/05/16 10:55:38;;;;;;;2.53;0.90;;;21.00;52.20;;;;;;5094520;28;20449;-72
2021/05/16 10:58:05;;;;;;;3.37;1.07;;;20.50;52.20;;;;;;5094625;28;20578;-72
2021/05/16 11:00:34;;;;;;;3.55;1.25;;;19.90;52.40;;;;;;5094718;28;20444;-72
2021/05/16 11:03:03;;;;;;;2.70;0.90;;;19.50;54.90;;;;;;5094680;28;20210;-72
2021/05/16 11:05:55;;;;;;;1.10;0.80;;;19.60;55.40;;;;;;5094682;28;20313;-72
2021/05/16 11:09:06;;;;;;;1.88;0.93;;;19.90;54.70;;;;;;5094255;28;20446;-73
2021/05/16 11:11:35;;;;;;;1.97;1.07;;;19.80;53.80;;;;;;5094056;28;20199;-73
2021/05/16 11:14:03;;;;;;;1.88;0.80;;;19.90;55.60;;;;;;5094193;28;20592;-72
2021/05/16 11:16:29;;;;;;;2.20;1.37;;;20.00;52.90;;;;;;5093769;28;20220;-72
2021/05/16 11:18:56;;;;;;;1.57;1.20;;;20.00;54.30;;;;;;5094104;28;20447;-72
2021/05/16 11:21:24;;;;;;;2.97;1.47;;;20.10;54.70;;;;;;5094133;28;20532;-73
2021/05/16 11:23:51;;;;;;;3.83;0.80;;;20.00;56.20;;;;;;5094085;28;20437;-72
2021/05/16 11:26:22;;;;;;;2.20;0.70;;;20.00;55.80;;;;;;5093374;28;20569;-73
2021/05/16 11:28:56;;;;;;;2.50;1.60;;;20.20;52.90;;;;;;5094103;28;20497;-72
2021/05/16 11:31:25;;;;;;;4.83;2.40;;;20.20;53.50;;;;;;5094043;28;20208;-72
2021/05/16 11:33:53;;;;;;;2.33;1.90;;;20.30;53.80;;;;;;5093849;28;21035;-72
2021/05/16 11:36:21;;;;;;;3.20;2.10;;;20.60;53.20;;;;;;5097471;28;20471;-73
2021/05/16 11:38:48;;;;;;;2.07;0.97;;;20.70;53.10;;;;;;5097730;28;20535;-72
2021/05/16 11:41:28;;;;;;;2.53;1.17;;;20.80;51.80;;;;;;5097589;28;20472;-72
2021/05/16 11:43:56;;;;;;;2.37;1.10;;;20.80;51.60;;;;;;5097639;28;20470;-72
2021/05/16 11:46:27;;;;;;;4.47;2.77;;;20.90;53.70;;;;;;5097541;28;20486;-72
2021/05/16 11:48:54;;;;;;;2.23;1.37;;;21.00;51.30;;;;;;5097668;28;20528;-72
2021/05/16 11:51:20;;;;;;;2.17;1.50;;;20.90;50.90;;;;;;5097596;28;20472;-73
2021/05/16 11:53:52;;;;;;;1.37;1.10;;;21.00;50.30;;;;;;5097630;28;20546;-73
2021/05/16 11:56:20;;;;;;;3.43;1.00;;;21.10;53.00;;;;;;5097079;28;20542;-72
2021/05/16 11:58:47;;;;;;;2.93;1.07;;;21.10;49.30;;;;;;5097477;28;20446;-73
2021/05/16 12:01:14;;;;;;;2.83;2.20;;;21.10;49.20;;;;;;5097265;28;20526;-72
2021/05/16 12:03:55;;;;;;;3.10;1.70;;;21.20;50.70;;;;;;5097102;28;20490;-73
2021/05/16 12:06:22;;;;;;;3.27;1.40;;;21.30;50.50;;;;;;5097064;28;20491;-72
2021/05/16 12:09:05;;;;;;;2.37;1.37;;;21.40;49.80;;;;;;5097134;28;20522;-73
2021/05/16 12:11:33;;;;;;;3.70;2.60;;;21.30;50.40;;;;;;5097225;28;20443;-73
2021/05/16 12:14:07;;;;;;;1.40;0.80;;;21.30;50.50;;;;;;5097014;28;20777;-72
2021/05/16 12:16:36;;;;;;;1.50;0.87;;;21.10;50.10;;;;;;5096796;28;20492;-72
2021/05/16 12:19:03;;;;;;;1.63;0.70;;;20.80;50.50;;;;;;5097197;28;20481;-72
2021/05/16 12:21:30;;;;;;;1.20;0.90;;;20.60;51.30;;;;;;5097039;28;20454;-73
2021/05/16 12:23:59;;;;;;;2.70;1.17;;;20.50;52.60;;;;;;5097238;28;20446;-73
2021/05/16 12:26:26;;;;;;;1.67;0.80;;;20.50;52.90;;;;;;5096552;28;20490;-72
2021/05/16 12:28:54;;;;;;;1.80;0.80;;;20.40;53.30;;;;;;5096413;28;20556;-72
2021/05/16 12:31:22;;;;;;;3.00;1.27;;;20.30;55.10;;;;;;5096028;28;20451;-72
2021/05/16 12:33:50;;;;;;;2.30;1.17;;;20.30;55.00;;;;;;5095994;28;20944;-72
2021/05/16 12:36:17;;;;;;;1.97;1.10;;;20.20;55.70;;;;;;5096316;28;20490;-72
2021/05/16 12:38:46;;;;;;;1.70;0.70;;;20.20;56.90;;;;;;5096838;28;21008;-72
2021/05/16 12:41:15;;;;;;;2.70;0.90;;;20.10;53.50;;;;;;5096272;28;20441;-72
2021/05/16 12:43:41;;;;;;;2.17;0.90;;;20.00;53.30;;;;;;5096219;28;20528;-72
2021/05/16 12:46:08;;;;;;;1.80;0.77;;;20.00;53.70;;;;;;5094545;28;20487;-72
2021/05/16 12:48:35;;;;;;;2.07;0.90;;;19.90;53.60;;;;;;5095985;28;20528;-72
2021/05/16 12:51:04;;;;;;;3.20;1.00;;;19.80;53.90;;;;;;5096400;28;20452;-73